createdAt,value
2018-06-30T00:00:30.661Z,21.81
2018-06-30T00:02:58.225Z,21.77
2018-06-30T00:05:25.769Z,21.73
2018-06-30T00:07:53.349Z,21.77
2018-06-30T00:10:29.181Z,21.70
2018-06-30T00:12:57.246Z,21.63
2018-06-30T00:15:24.886Z,21.58
2018-06-30T00:17:52.457Z,21.51
2018-06-30T00:20:20.073Z,21.42
2018-06-30T00:22:47.624Z,21.44
2018-06-30T00:25:15.166Z,21.43
2018-06-30T00:27:42.715Z,21.36
2018-06-30T00:30:10.251Z,21.28
2018-06-30T00:32:37.838Z,21.27
2018-06-30T00:35:05.563Z,21.21
2018-06-30T00:37:33.126Z,21.18
2018-06-30T00:40:01.667Z,21.12
2018-06-30T00:42:29.457Z,21.15
2018-06-30T00:44:56.986Z,21.15
2018-06-30T00:47:24.561Z,21.10
2018-06-30T00:49:52.110Z,21.00
2018-06-30T00:52:19.645Z,20.93
2018-06-30T00:54:47.184Z,20.96
2018-06-30T00:57:14.725Z,20.91
2018-06-30T00:59:42.273Z,20.87
2018-06-30T01:02:09.878Z,20.76
2018-06-30T01:04:37.450Z,20.73
2018-06-30T01:07:05.002Z,20.68
2018-06-30T01:09:32.545Z,20.65
2018-06-30T01:12:00.133Z,20.62
2018-06-30T01:14:27.912Z,20.63
2018-06-30T01:16:55.460Z,20.63
2018-06-30T01:19:23.031Z,20.47
2018-06-30T01:21:50.550Z,20.38
2018-06-30T01:24:18.119Z,20.37
2018-06-30T01:26:45.683Z,20.32
2018-06-30T01:29:13.202Z,20.25
2018-06-30T01:31:40.718Z,20.20
2018-06-30T01:34:08.269Z,20.12
2018-06-30T01:36:35.829Z,20.09
2018-06-30T01:39:05.210Z,20.09
2018-06-30T01:41:32.761Z,20.11
2018-06-30T01:44:00.322Z,20.09
2018-06-30T01:46:27.842Z,20.08
2018-06-30T01:48:55.410Z,20.12
2018-06-30T01:51:22.968Z,20.11
2018-06-30T01:53:50.490Z,19.99
2018-06-30T01:56:18.055Z,19.98
2018-06-30T01:58:45.702Z,19.99
2018-06-30T02:01:13.222Z,20.01
2018-06-30T02:03:40.798Z,20.08
2018-06-30T02:06:08.317Z,20.13
2018-06-30T02:08:35.839Z,20.12
2018-06-30T02:11:03.472Z,20.11
2018-06-30T02:13:31.012Z,20.14
2018-06-30T02:15:58.572Z,20.14
2018-06-30T02:18:26.308Z,20.13
2018-06-30T02:20:53.902Z,20.18
2018-06-30T02:23:21.442Z,20.15
2018-06-30T02:25:49.016Z,20.22
2018-06-30T02:28:16.605Z,20.23
2018-06-30T02:30:44.126Z,20.25
2018-06-30T02:33:11.670Z,20.27
2018-06-30T02:35:39.211Z,20.19
2018-06-30T02:38:06.748Z,20.22
2018-06-30T02:40:34.347Z,20.23
2018-06-30T02:43:01.987Z,20.22
2018-06-30T02:45:29.566Z,20.20
2018-06-30T02:47:57.114Z,20.21
2018-06-30T02:50:24.646Z,20.22
2018-06-30T02:52:52.271Z,20.16
2018-06-30T02:55:19.930Z,20.19
2018-06-30T02:57:47.479Z,20.15
2018-06-30T03:00:14.995Z,20.14
2018-06-30T03:02:42.538Z,20.10
2018-06-30T03:05:10.064Z,19.96
2018-06-30T03:07:37.691Z,20.00
2018-06-30T03:10:05.335Z,19.97
2018-06-30T03:12:32.895Z,20.01
2018-06-30T03:15:00.426Z,20.02
2018-06-30T03:17:28.003Z,19.99
2018-06-30T03:19:55.516Z,19.92
2018-06-30T03:22:23.062Z,19.89
2018-06-30T03:24:50.629Z,19.83
2018-06-30T03:27:18.179Z,19.81
2018-06-30T03:29:45.754Z,19.80
2018-06-30T03:32:13.376Z,19.79
2018-06-30T03:34:40.871Z,19.78
2018-06-30T03:37:08.398Z,19.77
2018-06-30T03:39:35.949Z,19.78
2018-06-30T03:42:03.521Z,19.84
2018-06-30T03:44:31.068Z,19.91
2018-06-30T03:46:58.621Z,19.93
2018-06-30T03:49:26.138Z,19.83
2018-06-30T03:51:53.907Z,19.85
2018-06-30T03:54:21.486Z,19.75
2018-06-30T03:56:48.994Z,19.75
2018-06-30T03:59:16.527Z,19.77
2018-06-30T04:01:44.079Z,19.74
2018-06-30T04:04:11.623Z,19.70
2018-06-30T04:06:39.215Z,19.72
2018-06-30T04:09:11.667Z,19.66
2018-06-30T04:11:39.214Z,19.61
2018-06-30T04:14:07.018Z,19.55
2018-06-30T04:16:34.730Z,19.58
2018-06-30T04:19:09.394Z,19.64
2018-06-30T04:21:36.946Z,19.68
2018-06-30T04:24:04.503Z,19.76
2018-06-30T04:26:32.014Z,19.74
2018-06-30T04:28:59.573Z,19.75
2018-06-30T04:31:27.089Z,19.70
2018-06-30T04:33:54.621Z,19.63
2018-06-30T04:36:22.215Z,19.63
2018-06-30T04:38:49.723Z,19.69
2018-06-30T04:41:17.251Z,19.75
2018-06-30T04:43:44.890Z,19.71
2018-06-30T04:46:12.448Z,19.78
2018-06-30T04:48:39.995Z,19.83
2018-06-30T04:51:07.683Z,19.79
2018-06-30T04:53:35.170Z,19.77
2018-06-30T04:56:02.694Z,19.77
2018-06-30T04:58:30.319Z,19.72
2018-06-30T05:00:57.843Z,19.71
2018-06-30T05:03:25.392Z,19.67
2018-06-30T05:05:52.984Z,19.64
2018-06-30T05:08:20.573Z,19.68
2018-06-30T05:10:48.091Z,19.69
2018-06-30T05:13:15.639Z,19.71
2018-06-30T05:15:43.179Z,19.69
2018-06-30T05:18:10.706Z,19.68
2018-06-30T05:20:38.259Z,19.62
2018-06-30T05:23:05.799Z,19.66
2018-06-30T05:25:33.326Z,19.70
2018-06-30T05:28:00.877Z,19.65
2018-06-30T05:30:28.378Z,19.59
2018-06-30T05:32:55.906Z,19.56
2018-06-30T05:35:23.451Z,19.64
2018-06-30T05:37:50.962Z,19.65
2018-06-30T05:40:18.494Z,19.69
2018-06-30T05:42:46.066Z,19.68
2018-06-30T05:45:13.598Z,19.69
2018-06-30T05:47:41.106Z,19.79
2018-06-30T05:50:09.806Z,19.84
2018-06-30T05:52:37.322Z,19.79
2018-06-30T05:55:04.909Z,19.78
2018-06-30T05:57:32.454Z,19.73
2018-06-30T06:00:00.046Z,19.83
2018-06-30T06:02:27.622Z,19.71
2018-06-30T06:04:55.193Z,19.84
2018-06-30T06:07:22.794Z,19.94
2018-06-30T06:09:50.439Z,20.08
2018-06-30T06:12:17.917Z,20.03
2018-06-30T06:14:45.422Z,20.12
2018-06-30T06:17:12.943Z,20.23
2018-06-30T06:19:40.510Z,20.37
2018-06-30T06:22:08.062Z,20.46
2018-06-30T06:24:35.578Z,20.60
2018-06-30T06:27:03.170Z,20.73
2018-06-30T06:29:30.704Z,20.81
2018-06-30T06:31:58.482Z,20.90
2018-06-30T06:34:26.042Z,20.92
2018-06-30T06:36:53.974Z,20.97
2018-06-30T06:39:21.483Z,21.03
2018-06-30T06:41:49.019Z,21.13
2018-06-30T06:44:16.558Z,21.24
2018-06-30T06:46:44.108Z,21.31
2018-06-30T06:49:11.683Z,21.37
2018-06-30T06:51:39.206Z,21.49
2018-06-30T06:54:06.791Z,21.59
2018-06-30T06:56:34.380Z,21.72
2018-06-30T06:59:01.962Z,21.95
2018-06-30T07:01:29.487Z,22.15
2018-06-30T07:03:57.050Z,22.25
2018-06-30T07:06:24.761Z,22.35
2018-06-30T07:08:52.170Z,22.55
2018-06-30T07:11:19.726Z,22.73
2018-06-30T07:13:47.227Z,22.79
2018-06-30T07:16:14.735Z,22.93
2018-06-30T07:18:42.298Z,23.01
2018-06-30T07:21:09.813Z,23.09
2018-06-30T07:23:37.322Z,23.26
2018-06-30T07:26:04.890Z,23.31
2018-06-30T07:28:32.477Z,23.30
2018-06-30T07:31:00.035Z,23.35
2018-06-30T07:33:27.613Z,23.35
2018-06-30T07:35:55.121Z,23.52
2018-06-30T07:38:22.626Z,23.72
2018-06-30T07:40:50.325Z,23.74
2018-06-30T07:43:17.787Z,23.62
2018-06-30T07:45:45.330Z,23.63
2018-06-30T07:48:12.863Z,23.82
2018-06-30T07:50:40.390Z,23.93
2018-06-30T07:53:07.966Z,24.15
2018-06-30T07:55:35.584Z,24.27
2018-06-30T07:58:03.115Z,24.46
2018-06-30T08:00:30.739Z,24.46
2018-06-30T08:02:58.299Z,24.75
2018-06-30T08:05:27.033Z,24.85
2018-06-30T08:07:54.587Z,24.94
2018-06-30T08:10:22.151Z,25.22
2018-06-30T08:12:49.665Z,25.42
2018-06-30T08:15:17.184Z,25.56
2018-06-30T08:17:44.746Z,25.63
2018-06-30T08:20:12.251Z,25.67
2018-06-30T08:22:39.823Z,25.79
2018-06-30T08:25:07.555Z,25.92
2018-06-30T08:27:35.107Z,26.01
2018-06-30T08:30:02.748Z,26.15
2018-06-30T08:32:30.360Z,26.38
2018-06-30T08:34:57.909Z,26.70
2018-06-30T08:37:25.466Z,26.77
2018-06-30T08:39:53.002Z,26.76
2018-06-30T08:42:20.529Z,26.92
2018-06-30T08:44:48.081Z,27.20
2018-06-30T08:47:15.633Z,27.52
2018-06-30T08:49:43.143Z,27.61
2018-06-30T08:52:10.679Z,27.80
2018-06-30T08:54:38.261Z,28.10
2018-06-30T08:57:05.894Z,28.44
2018-06-30T08:59:33.370Z,28.77
2018-06-30T09:02:00.998Z,28.99
2018-06-30T09:04:28.526Z,29.24
2018-06-30T09:06:56.071Z,29.43
2018-06-30T09:09:23.706Z,29.65
2018-06-30T09:11:51.349Z,29.74
2018-06-30T09:14:18.845Z,29.57
2018-06-30T09:16:46.458Z,29.55
2018-06-30T09:19:13.958Z,29.86
2018-06-30T09:21:41.702Z,30.03
2018-06-30T09:24:09.364Z,30.17
2018-06-30T09:26:36.901Z,29.86
2018-06-30T09:29:04.738Z,29.96
2018-06-30T09:31:32.304Z,30.32
2018-06-30T09:33:59.826Z,30.19
2018-06-30T09:36:27.435Z,30.09
2018-06-30T09:38:55.100Z,30.25
2018-06-30T09:41:22.721Z,30.49
2018-06-30T09:43:50.235Z,30.69
2018-06-30T09:46:17.771Z,30.91
2018-06-30T09:48:45.318Z,31.05
2018-06-30T09:51:12.858Z,31.13
2018-06-30T09:53:40.450Z,31.18
2018-06-30T09:56:07.986Z,31.44
2018-06-30T09:58:35.519Z,31.65
2018-06-30T10:01:07.374Z,31.55
2018-06-30T10:03:35.271Z,31.59
2018-06-30T10:06:02.923Z,31.47
2018-06-30T10:08:30.486Z,31.62
2018-06-30T10:10:58.038Z,31.76
2018-06-30T10:13:25.572Z,31.84
2018-06-30T10:15:53.205Z,31.92
2018-06-30T10:18:20.754Z,32.19
2018-06-30T10:20:48.318Z,32.25
2018-06-30T10:23:15.879Z,32.32
2018-06-30T10:25:43.426Z,32.16
2018-06-30T10:28:11.465Z,32.15
2018-06-30T10:30:39.746Z,32.41
2018-06-30T10:33:07.326Z,32.75
2018-06-30T10:35:34.882Z,32.75
2018-06-30T10:38:02.463Z,33.10
2018-06-30T10:40:29.962Z,33.28
2018-06-30T10:42:57.487Z,33.48
2018-06-30T10:45:25.063Z,33.59
2018-06-30T10:47:52.718Z,33.54
2018-06-30T10:50:20.275Z,33.55
2018-06-30T10:52:47.834Z,33.66
2018-06-30T10:55:15.434Z,33.53
2018-06-30T10:57:42.970Z,33.73
2018-06-30T11:00:10.631Z,33.88
2018-06-30T11:02:38.278Z,34.03
2018-06-30T11:05:05.917Z,34.36
2018-06-30T11:07:33.490Z,34.65
2018-06-30T11:10:01.017Z,34.89
2018-06-30T11:12:28.577Z,35.04
2018-06-30T11:14:56.134Z,35.27
2018-06-30T11:17:23.691Z,35.49
2018-06-30T11:19:51.242Z,35.67
2018-06-30T11:22:18.988Z,35.85
2018-06-30T11:24:46.510Z,35.93
2018-06-30T11:27:14.041Z,36.18
2018-06-30T11:29:41.602Z,36.50
2018-06-30T11:32:09.138Z,36.64
2018-06-30T11:34:36.663Z,36.71
2018-06-30T11:37:04.298Z,36.93
2018-06-30T11:39:31.830Z,37.18
2018-06-30T11:41:59.646Z,37.57
2018-06-30T11:44:27.226Z,37.45
2018-06-30T11:46:54.834Z,37.74
2018-06-30T11:49:22.383Z,37.92
2018-06-30T11:51:49.954Z,38.16
2018-06-30T11:54:17.483Z,38.22
2018-06-30T11:56:44.986Z,38.08
2018-06-30T11:59:12.551Z,38.01
2018-06-30T12:01:40.064Z,38.30
2018-06-30T12:04:07.630Z,38.50
2018-06-30T12:06:35.195Z,38.44
2018-06-30T12:09:03.012Z,38.57
2018-06-30T12:11:30.522Z,38.88
2018-06-30T12:13:58.079Z,38.86
2018-06-30T12:16:25.610Z,38.89
2018-06-30T12:18:53.127Z,38.88
2018-06-30T12:21:20.680Z,39.23
2018-06-30T12:23:48.230Z,39.19
2018-06-30T12:26:15.893Z,39.36
2018-06-30T12:28:43.447Z,39.39
2018-06-30T12:31:11.009Z,39.43
2018-06-30T12:33:38.541Z,39.46
2018-06-30T12:36:06.267Z,39.55
2018-06-30T12:38:33.804Z,39.28
2018-06-30T12:41:01.325Z,39.39
2018-06-30T12:43:28.930Z,39.52
2018-06-30T12:45:56.455Z,39.76
2018-06-30T12:48:23.999Z,40.24
2018-06-30T12:50:51.547Z,40.22
2018-06-30T12:53:19.102Z,40.21
2018-06-30T12:55:46.659Z,40.24
2018-06-30T12:58:14.231Z,39.95
2018-06-30T13:00:41.853Z,40.04
2018-06-30T13:03:09.374Z,40.21
2018-06-30T13:05:37.092Z,40.44
2018-06-30T13:08:04.750Z,40.62
2018-06-30T13:10:32.346Z,40.63
2018-06-30T13:12:59.910Z,40.75
2018-06-30T13:15:27.540Z,40.87
2018-06-30T13:17:55.091Z,40.82
2018-06-30T13:20:22.712Z,40.97
2018-06-30T13:22:50.256Z,41.14
2018-06-30T13:25:17.785Z,41.02
2018-06-30T13:27:45.499Z,40.88
2018-06-30T13:30:13.051Z,40.66
2018-06-30T13:32:40.596Z,40.68
2018-06-30T13:35:08.176Z,40.73
2018-06-30T13:37:35.742Z,40.93
2018-06-30T13:40:03.423Z,40.94
2018-06-30T13:42:31.038Z,40.87
2018-06-30T13:44:59.694Z,40.93
2018-06-30T13:47:27.229Z,40.96
2018-06-30T13:49:54.802Z,40.75
2018-06-30T13:52:22.357Z,40.92
2018-06-30T13:54:49.898Z,40.89
2018-06-30T13:57:17.781Z,40.93
2018-06-30T13:59:45.339Z,40.75
2018-06-30T14:02:12.871Z,40.58
2018-06-30T14:04:40.434Z,40.53
2018-06-30T14:07:08.037Z,40.53
2018-06-30T14:09:35.602Z,40.38
2018-06-30T14:12:03.199Z,40.42
2018-06-30T14:14:30.795Z,40.32
2018-06-30T14:16:58.338Z,40.22
2018-06-30T14:19:26.107Z,39.98
2018-06-30T14:21:53.638Z,39.93
2018-06-30T14:24:21.307Z,39.90
2018-06-30T14:26:49.063Z,39.83
2018-06-30T14:29:16.722Z,39.73
2018-06-30T14:31:44.434Z,39.80
2018-06-30T14:34:12.576Z,39.66
2018-06-30T14:36:40.382Z,39.22
2018-06-30T14:39:11.342Z,39.09
2018-06-30T14:41:39.254Z,38.81
2018-06-30T14:44:07.086Z,38.69
2018-06-30T14:46:35.084Z,38.46
2018-06-30T14:49:03.239Z,38.07
2018-06-30T14:51:30.819Z,37.74
2018-06-30T14:53:58.595Z,37.43
2018-06-30T14:56:26.370Z,37.09
2018-06-30T14:58:54.109Z,36.65
2018-06-30T15:01:22.196Z,35.97
2018-06-30T15:03:49.899Z,35.24
2018-06-30T15:06:17.612Z,34.85
2018-06-30T15:08:45.261Z,34.43
2018-06-30T15:11:12.990Z,33.82
2018-06-30T15:13:40.801Z,33.17
2018-06-30T15:16:08.531Z,32.41
2018-06-30T15:18:36.262Z,31.69
2018-06-30T15:21:04.109Z,31.31
2018-06-30T15:23:31.765Z,30.91
2018-06-30T15:25:59.370Z,30.46
2018-06-30T15:28:27.094Z,30.03
2018-06-30T15:30:54.893Z,29.64
2018-06-30T15:33:22.688Z,29.37
2018-06-30T15:35:50.552Z,29.13
2018-06-30T15:38:18.280Z,28.85
2018-06-30T15:40:46.159Z,28.69
2018-06-30T15:43:13.817Z,28.36
2018-06-30T15:45:41.521Z,28.21
2018-06-30T15:48:09.236Z,28.03
2018-06-30T15:50:37.433Z,27.92
2018-06-30T15:53:05.158Z,27.65
2018-06-30T15:55:32.886Z,27.54
2018-06-30T15:58:00.572Z,27.55
2018-06-30T16:00:28.394Z,27.38
2018-06-30T16:02:56.089Z,27.32
2018-06-30T16:05:23.912Z,27.10
2018-06-30T16:07:51.738Z,26.92
2018-06-30T16:10:19.628Z,26.76
2018-06-30T16:12:47.291Z,26.77
2018-06-30T16:15:14.960Z,26.72
2018-06-30T16:17:42.622Z,26.44
2018-06-30T16:20:10.495Z,26.39
2018-06-30T16:22:38.385Z,26.35
2018-06-30T16:25:06.750Z,26.29
2018-06-30T16:27:34.444Z,26.27
2018-06-30T16:30:02.202Z,26.17
2018-06-30T16:32:29.893Z,25.96
2018-06-30T16:34:57.630Z,25.82
2018-06-30T16:37:25.527Z,25.78
2018-06-30T16:39:53.226Z,25.77
2018-06-30T16:42:20.881Z,25.81
2018-06-30T16:44:48.488Z,25.67
2018-06-30T16:47:16.154Z,25.59
2018-06-30T16:49:44.646Z,25.52
2018-06-30T16:52:12.217Z,25.54
2018-06-30T16:54:39.800Z,25.32
2018-06-30T16:57:07.415Z,25.32
2018-06-30T16:59:35.017Z,25.37
2018-06-30T17:02:02.591Z,25.39
2018-06-30T17:04:30.138Z,25.33
2018-06-30T17:06:57.693Z,25.32
2018-06-30T17:09:25.411Z,25.21
2018-06-30T17:11:53.002Z,25.15
2018-06-30T17:14:20.559Z,25.06
2018-06-30T17:16:48.199Z,25.02
2018-06-30T17:19:15.764Z,24.96
2018-06-30T17:21:43.311Z,24.98
2018-06-30T17:24:10.881Z,24.95
2018-06-30T17:26:38.485Z,24.89
2018-06-30T17:29:06.075Z,24.76
2018-06-30T17:31:33.654Z,24.78
2018-06-30T17:34:01.200Z,24.76
2018-06-30T17:36:28.779Z,24.76
2018-06-30T17:38:56.447Z,24.79
2018-06-30T17:41:23.974Z,24.80
2018-06-30T17:43:51.653Z,24.70
2018-06-30T17:46:19.222Z,24.47
2018-06-30T17:48:46.829Z,24.37
2018-06-30T17:51:14.424Z,24.27
2018-06-30T17:53:41.967Z,24.18
2018-06-30T17:56:09.531Z,24.13
2018-06-30T17:58:37.087Z,23.98
2018-06-30T18:01:04.798Z,23.93
2018-06-30T18:03:32.388Z,23.87
2018-06-30T18:05:59.948Z,23.72
2018-06-30T18:08:27.823Z,23.55
2018-06-30T18:10:55.610Z,23.43
2018-06-30T18:13:23.426Z,23.39
2018-06-30T18:15:51.251Z,23.37
2018-06-30T18:18:18.922Z,23.31
2018-06-30T18:20:51.226Z,23.27
2018-06-30T18:23:18.849Z,23.19
2018-06-30T18:25:46.423Z,23.14
2018-06-30T18:28:14.184Z,23.13
2018-06-30T18:30:41.794Z,23.04
2018-06-30T18:33:09.544Z,23.01
2018-06-30T18:35:37.166Z,22.93
2018-06-30T18:38:04.839Z,22.82
2018-06-30T18:40:32.429Z,22.71
2018-06-30T18:43:00.209Z,22.64
2018-06-30T18:45:27.811Z,22.59
2018-06-30T18:47:55.476Z,22.52
2018-06-30T18:50:23.302Z,22.45
2018-06-30T18:52:50.989Z,22.39
2018-06-30T18:55:18.618Z,22.34
2018-06-30T18:57:46.302Z,22.26
2018-06-30T19:00:13.983Z,22.20
2018-06-30T19:02:41.820Z,22.12
2018-06-30T19:05:09.549Z,22.08
2018-06-30T19:07:37.160Z,22.02
2018-06-30T19:10:05.073Z,21.96
2018-06-30T19:12:32.631Z,21.91
2018-06-30T19:15:00.280Z,21.84
2018-06-30T19:17:27.854Z,21.83
2018-06-30T19:19:55.507Z,21.77
2018-06-30T19:22:23.089Z,21.69
2018-06-30T19:24:50.718Z,21.60
2018-06-30T19:27:18.369Z,21.55
2018-06-30T19:29:45.957Z,21.50
2018-06-30T19:32:13.703Z,21.43
2018-06-30T19:34:41.303Z,21.35
2018-06-30T19:37:08.970Z,21.31
2018-06-30T19:39:36.529Z,21.25
2018-06-30T19:42:04.299Z,21.18
2018-06-30T19:44:32.115Z,21.14
2018-06-30T19:46:59.865Z,21.14
2018-06-30T19:49:27.649Z,21.07
2018-06-30T19:51:55.322Z,21.03
2018-06-30T19:54:23.030Z,20.94
2018-06-30T19:56:50.887Z,20.89
2018-06-30T19:59:18.615Z,20.80
2018-06-30T20:01:46.386Z,20.75
2018-06-30T20:04:14.284Z,20.62
2018-06-30T20:06:42.075Z,20.55
2018-06-30T20:09:09.808Z,20.50
2018-06-30T20:11:37.625Z,20.38
2018-06-30T20:14:05.543Z,20.30
2018-06-30T20:16:33.330Z,20.20
2018-06-30T20:19:01.038Z,20.11
2018-06-30T20:21:29.255Z,20.02
2018-06-30T20:23:56.919Z,20.00
2018-06-30T20:26:24.734Z,19.94
2018-06-30T20:28:52.454Z,19.88
2018-06-30T20:31:20.068Z,19.83
2018-06-30T20:33:47.807Z,19.69
2018-06-30T20:36:15.697Z,19.71
2018-06-30T20:38:43.092Z,19.65
2018-06-30T20:41:10.711Z,19.60
2018-06-30T20:43:38.287Z,19.54
2018-06-30T20:46:06.021Z,19.47
2018-06-30T20:48:33.611Z,19.36
2018-06-30T20:51:01.418Z,19.28
2018-06-30T20:53:29.794Z,19.18
2018-06-30T20:55:57.393Z,19.15
2018-06-30T20:58:25.002Z,19.12
2018-06-30T21:00:52.613Z,19.04
2018-06-30T21:03:20.188Z,18.99
2018-06-30T21:05:47.970Z,18.94
2018-06-30T21:08:15.588Z,18.87
2018-06-30T21:10:43.189Z,18.84
2018-06-30T21:13:10.855Z,18.79
2018-06-30T21:15:38.433Z,18.76
2018-06-30T21:18:06.204Z,18.70
2018-06-30T21:20:33.788Z,18.64
2018-06-30T21:23:01.379Z,18.64
2018-06-30T21:25:29.134Z,18.59
2018-06-30T21:27:56.767Z,18.55
2018-06-30T21:30:24.442Z,18.52
2018-06-30T21:32:52.007Z,18.51
2018-06-30T21:35:19.643Z,18.49
2018-06-30T21:37:47.510Z,18.47
2018-06-30T21:40:15.086Z,18.46
2018-06-30T21:42:42.811Z,18.40
2018-06-30T21:45:10.412Z,18.39
2018-06-30T21:47:38.033Z,18.40
2018-06-30T21:50:05.879Z,18.37
2018-06-30T21:52:33.526Z,18.34
2018-06-30T21:55:01.134Z,18.32
2018-06-30T21:57:28.970Z,18.26
2018-06-30T21:59:56.521Z,18.24
2018-06-30T22:02:24.252Z,18.22
2018-06-30T22:04:51.748Z,18.18
2018-06-30T22:07:19.333Z,18.13
2018-06-30T22:09:47.135Z,18.11
2018-06-30T22:12:14.711Z,18.08
2018-06-30T22:14:42.453Z,18.02
2018-06-30T22:17:10.066Z,17.98
2018-06-30T22:19:37.590Z,17.89
2018-06-30T22:22:05.467Z,17.83
2018-06-30T22:24:33.101Z,17.81
2018-06-30T22:27:00.813Z,17.80
2018-06-30T22:29:28.396Z,17.75
2018-06-30T22:31:55.953Z,17.69
2018-06-30T22:34:23.595Z,17.63
2018-06-30T22:36:51.106Z,17.59
2018-06-30T22:39:29.784Z,17.57
2018-06-30T22:41:57.303Z,17.57
2018-06-30T22:44:24.953Z,17.55
2018-06-30T22:46:52.603Z,17.55
2018-06-30T22:49:20.175Z,17.52
2018-06-30T22:51:47.844Z,17.46
2018-06-30T22:54:15.419Z,17.39
2018-06-30T22:56:43.032Z,17.34
2018-06-30T22:59:10.659Z,17.33
2018-06-30T23:01:38.380Z,17.31
2018-06-30T23:04:06.170Z,17.26
2018-06-30T23:06:33.755Z,17.22
2018-06-30T23:09:01.346Z,17.19
2018-06-30T23:11:29.053Z,17.14
2018-06-30T23:13:56.588Z,17.09
2018-06-30T23:16:24.279Z,17.02
2018-06-30T23:18:51.823Z,16.97
2018-06-30T23:21:19.451Z,16.85
2018-06-30T23:23:47.155Z,16.77
2018-06-30T23:26:14.689Z,16.74
2018-06-30T23:28:42.501Z,16.71
2018-06-30T23:31:10.019Z,16.62
2018-06-30T23:33:37.615Z,16.56
2018-06-30T23:36:05.355Z,16.51
2018-06-30T23:38:32.861Z,16.46
2018-06-30T23:41:00.576Z,16.44
2018-06-30T23:43:28.090Z,16.35
2018-06-30T23:45:55.671Z,16.35
2018-06-30T23:48:23.367Z,16.30
2018-06-30T23:50:50.902Z,16.29
2018-06-30T23:53:18.614Z,16.22
2018-06-30T23:55:46.247Z,16.21
2018-06-30T23:58:13.842Z,16.14
